Time;durP1;ratioP1;P1;durP2;ratioP2;P2;SDS_P1;SDS_P2;PMS_P1;PMS_P2;Temp;Humidity;BMP_temperature;BMP_pressure;BME280_temperature;BME280_humidity;BME280_pressure;Samples;Min_cycle;Max_cycle;Signal;HPM_P1;HPM_P2
2024/04/05 00:00:13;;;;;;;13.47;3.00;;;;;;;11.86;95.86;100275.25;5044914;28;20232;-73
2024/04/05 00:02:41;;;;;;;10.90;2.93;;;;;;;11.86;95.42;100262.78;5040790;28;20303;-73
2024/04/05 00:05:09;;;;;;;12.33;2.97;;;;;;;11.86;94.91;100259.25;5045001;28;20209;-73
2024/04/05 00:07:36;;;;;;;8.13;2.80;;;;;;;11.85;94.70;100263.72;5043824;28;20214;-73
2024/04/05 00:10:03;;;;;;;11.97;3.60;;;;;;;11.86;94.50;100275.25;5041597;28;20321;-73
2024/04/05 00:12:29;;;;;;;9.50;2.77;;;;;;;11.85;94.35;100268.22;5045954;28;20273;-72
2024/04/05 00:14:57;;;;;;;12.20;3.10;;;;;;;11.85;93.93;100271.75;5041052;28;20295;-73
2024/04/05 00:17:23;;;;;;;8.53;1.97;;;;;;;11.81;94.03;100276.47;5043321;28;20208;-73
2024/04/05 00:19:49;;;;;;;10.03;2.43;;;;;;;11.79;94.25;100283.75;5041567;28;20231;-72
2024/04/05 00:22:15;;;;;;;10.83;2.93;;;;;;;11.80;94.15;100285.44;5042289;28;20300;-73
2024/04/05 00:24:42;;;;;;;10.83;2.70;;;;;;;11.79;94.52;100288.22;5040565;28;20292;-73
2024/04/05 00:27:07;;;;;;;13.63;2.70;;;;;;;11.81;93.89;100288.97;5043460;28;20712;-73
2024/04/05 00:29:36;;;;;;;10.17;2.27;;;;;;;11.77;93.71;100284.81;5044581;28;20217;-72
2024/04/05 00:32:04;;;;;;;13.23;2.97;;;;;;;11.74;93.69;100285.84;5043194;28;20205;-73
2024/04/05 00:34:31;;;;;;;7.77;2.67;;;;;;;11.73;93.65;100288.63;5044712;28;20237;-73
2024/04/05 00:36:56;;;;;;;8.17;2.07;;;;;;;11.72;93.28;100292.25;5040994;28;20296;-73
2024/04/05 00:39:23;;;;;;;7.37;2.90;;;;;;;11.69;93.01;100288.00;5043536;28;20318;-73
2024/04/05 00:41:48;;;;;;;9.87;2.97;;;;;;;11.66;92.61;100290.88;5045199;28;20695;-73
2024/04/05 00:44:15;;;;;;;8.23;2.23;;;;;;;11.67;92.41;100295.25;5044161;28;20213;-73
2024/04/05 00:46:41;;;;;;;10.03;2.33;;;;;;;11.65;92.05;100297.19;5045455;28;20987;-72
2024/04/05 00:49:09;;;;;;;8.60;1.90;;;;;;;11.61;92.16;100295.75;5042362;28;20322;-73
2024/04/05 00:51:36;;;;;;;6.97;2.33;;;;;;;11.58;91.24;100295.09;5042923;28;20294;-72
2024/04/05 00:54:03;;;;;;;13.43;2.53;;;;;;;11.54;90.84;100294.47;5041633;28;20587;-73
2024/04/05 00:56:31;;;;;;;15.10;2.67;;;;;;;11.54;91.28;100298.94;5045337;28;21540;-72
2024/04/05 00:58:58;;;;;;;6.23;2.73;;;;;;;11.52;90.59;100290.22;5044682;28;20658;-73
2024/04/05 01:01:24;;;;;;;9.47;2.30;;;;;;;11.52;90.06;100296.38;5043742;28;20291;-72
2024/04/05 01:03:50;;;;;;;11.30;2.80;;;;;;;11.52;89.82;100301.72;5044880;28;20202;-73
2024/04/05 01:06:17;;;;;;;8.73;3.13;;;;;;;11.48;89.24;100293.09;5044530;28;20240;-72
2024/04/05 01:08:44;;;;;;;10.77;1.80;;;;;;;11.48;89.11;100293.09;5043198;28;20247;-72
2024/04/05 01:11:10;;;;;;;14.47;3.00;;;;;;;11.49;88.62;100301.94;5043376;28;20216;-73
2024/04/05 01:13:36;;;;;;;9.20;3.23;;;;;;;11.47;88.65;100309.19;5040193;28;20205;-73
2024/04/05 01:16:06;;;;;;;7.10;2.23;;;;;;;11.45;88.48;100298.66;5042213;28;20299;-73
2024/04/05 01:18:33;;;;;;;10.77;2.33;;;;;;;11.44;88.41;100294.31;5040519;28;20213;-73
2024/04/05 01:21:01;;;;;;;12.90;2.30;;;;;;;11.43;88.19;100305.06;5043148;28;20325;-74
2024/04/05 01:23:29;;;;;;;9.03;2.10;;;;;;;11.43;87.86;100313.94;5034446;28;20834;-72
2024/04/05 01:25:57;;;;;;;12.27;2.93;;;;;;;11.42;88.28;100306.03;5042345;28;20232;-73
2024/04/05 01:28:24;;;;;;;11.90;2.17;;;;;;;11.38;88.23;100305.41;5043875;28;20207;-72
2024/04/05 01:30:50;;;;;;;12.53;2.57;;;;;;;11.39;87.96;100304.44;5042991;28;20227;-72
2024/04/05 01:33:16;;;;;;;11.27;2.70;;;;;;;11.36;87.71;100307.31;5044406;28;20615;-73
2024/04/05 01:35:42;;;;;;;11.93;2.23;;;;;;;11.37;87.33;100305.50;5041369;28;20234;-72
2024/04/05 01:38:08;;;;;;;13.57;2.40;;;;;;;11.37;87.06;100308.16;5043141;28;20245;-72
2024/04/05 01:40:34;;;;;;;11.63;3.40;;;;;;;11.36;87.02;100306.47;5043604;28;20233;-72
2024/04/05 01:43:02;;;;;;;10.63;2.13;;;;;;;11.33;86.90;100312.00;5043194;28;20214;-72
2024/04/05 01:45:28;;;;;;;13.80;2.43;;;;;;;11.30;87.07;100302.41;5042882;28;20216;-72
2024/04/05 01:47:54;;;;;;;12.53;1.77;;;;;;;11.29;87.32;100290.06;5044811;28;20706;-73
2024/04/05 01:50:20;;;;;;;11.23;2.90;;;;;;;11.27;87.05;100304.47;5040010;28;20232;-73
2024/04/05 01:52:48;;;;;;;10.97;2.73;;;;;;;11.25;87.00;100299.25;5044131;28;20292;-73
2024/04/05 01:55:13;;;;;;;11.50;2.43;;;;;;;11.25;86.57;100299.25;5043093;28;20209;-72
2024/04/05 01:57:40;;;;;;;7.67;2.00;;;;;;;11.26;86.44;100295.63;5044796;28;20210;-72
2024/04/05 02:00:08;;;;;;;9.07;2.10;;;;;;;11.30;85.88;100301.56;5041368;28;20343;-73
2024/04/05 02:02:35;;;;;;;9.60;2.07;;;;;;;11.30;85.72;100298.91;5044269;28;20205;-73
2024/04/05 02:05:00;;;;;;;10.97;2.30;;;;;;;11.26;85.56;100306.28;5043702;28;20298;-74
2024/04/05 02:07:27;;;;;;;11.17;2.00;;;;;;;11.27;85.53;100301.81;5041130;28;20229;-72
2024/04/05 02:09:53;;;;;;;10.17;2.53;;;;;;;11.26;85.69;100308.09;5043655;28;20228;-73
2024/04/05 02:12:21;;;;;;;10.13;1.93;;;;;;;11.26;85.93;100308.97;5044950;28;20601;-72
2024/04/05 02:14:47;;;;;;;9.10;2.47;;;;;;;11.27;85.56;100299.16;5048005;28;20226;-72
2024/04/05 02:17:15;;;;;;;10.57;2.50;;;;;;;11.24;85.78;100302.88;5047358;28;20558;-73
2024/04/05 02:19:41;;;;;;;8.47;2.63;;;;;;;11.22;85.74;100304.78;5046798;28;20261;-74
2024/04/05 02:22:08;;;;;;;11.80;2.70;;;;;;;11.22;85.71;100310.13;5048618;28;20218;-73
2024/04/05 02:24:34;;;;;;;10.13;1.97;;;;;;;11.21;85.88;100310.22;5045558;28;20606;-72
2024/04/05 02:27:01;;;;;;;12.93;2.57;;;;;;;11.18;85.70;100310.44;5047524;28;20232;-73
2024/04/05 02:29:26;;;;;;;7.07;1.93;;;;;;;11.16;85.62;100302.56;5047981;28;20732;-73
2024/04/05 02:31:53;;;;;;;10.93;2.50;;;;;;;11.18;85.75;100311.31;5046907;28;20202;-72
2024/04/05 02:34:20;;;;;;;10.00;2.40;;;;;;;11.16;85.61;100310.56;5045929;28;20310;-72
2024/04/05 02:36:47;;;;;;;9.67;2.00;;;;;;;11.12;85.56;100307.25;5044375;28;20196;-72
2024/04/05 02:39:13;;;;;;;10.57;2.33;;;;;;;11.09;85.57;100301.31;5045075;28;20232;-72
2024/04/05 02:41:39;;;;;;;7.63;2.40;;;;;;;11.11;85.34;100305.53;5047557;28;20206;-73
2024/04/05 02:44:05;;;;;;;12.97;2.90;;;;;;;11.12;85.71;100303.72;5041942;28;20212;-73
2024/04/05 02:46:32;;;;;;;14.13;2.47;;;;;;;11.12;85.87;100307.25;5045507;28;20221;-73
2024/04/05 02:48:57;;;;;;;8.87;2.10;;;;;;;11.11;86.02;100307.34;5048330;28;20313;-72
2024/04/05 02:51:25;;;;;;;9.50;2.13;;;;;;;11.14;86.07;100309.81;5047052;28;20284;-72
2024/04/05 02:53:51;;;;;;;9.47;2.13;;;;;;;11.15;86.12;100306.19;5045080;28;20777;-73
2024/04/05 02:56:18;;;;;;;9.70;2.90;;;;;;;11.11;85.79;100313.53;5043603;28;20195;-73
2024/04/05 02:58:43;;;;;;;13.00;2.53;;;;;;;11.10;86.41;100317.19;5043699;28;20813;-72
2024/04/05 03:01:10;;;;;;;8.10;2.37;;;;;;;11.08;86.51;100312.94;5046672;28;20289;-72
2024/04/05 03:03:36;;;;;;;9.63;1.90;;;;;;;11.08;86.46;100316.44;5044513;28;20208;-72
2024/04/05 03:06:02;;;;;;;7.37;2.27;;;;;;;11.10;86.53;100314.53;5046036;28;20221;-73
2024/04/05 03:08:29;;;;;;;12.47;2.00;;;;;;;11.08;86.79;100313.78;5046533;28;20218;-72
2024/04/05 03:10:56;;;;;;;9.87;2.97;;;;;;;11.08;86.71;100312.94;5046041;28;20212;-72
2024/04/05 03:13:22;;;;;;;9.67;2.03;;;;;;;11.06;86.97;100315.69;5045282;28;20912;-72
2024/04/05 03:15:49;;;;;;;9.63;2.20;;;;;;;11.06;86.96;100318.38;5043557;28;20222;-72
2024/04/05 03:18:14;;;;;;;13.13;2.60;;;;;;;11.06;87.14;100326.34;5045756;28;20749;-72
2024/04/05 03:20:42;;;;;;;10.23;2.37;;;;;;;11.04;87.35;100328.28;5046454;28;20216;-72
2024/04/05 03:23:10;;;;;;;6.20;1.67;;;;;;;11.00;87.69;100324.13;5044356;28;20827;-72
2024/04/05 03:25:38;;;;;;;9.57;1.90;;;;;;;10.99;88.01;100322.41;5043441;28;20298;-72
2024/04/05 03:28:04;;;;;;;10.70;1.97;;;;;;;10.97;88.43;100320.81;5045369;28;20702;-72
2024/04/05 03:30:32;;;;;;;9.37;2.13;;;;;;;10.97;88.75;100321.66;5044034;28;20232;-73
2024/04/05 03:32:57;;;;;;;7.87;1.93;;;;;;;10.95;88.79;100318.25;5047775;28;20562;-73
2024/04/05 03:35:24;;;;;;;7.87;2.07;;;;;;;10.95;89.21;100318.25;5044554;28;20245;-72
2024/04/05 03:37:53;;;;;;;10.63;2.60;;;;;;;10.95;89.46;100317.41;5045103;28;20202;-72
2024/04/05 03:40:19;;;;;;;9.93;2.00;;;;;;;10.96;89.89;100321.75;5046636;28;20286;-72
2024/04/05 03:42:47;;;;;;;9.40;3.50;;;;;;;10.97;90.06;100323.47;5046213;28;20303;-73
2024/04/05 03:45:13;;;;;;;8.90;3.10;;;;;;;10.97;90.47;100323.47;5046944;28;20583;-73
2024/04/05 03:47:40;;;;;;;9.57;2.30;;;;;;;10.99;90.58;100327.75;5042204;28;20229;-72
2024/04/05 03:50:06;;;;;;;8.97;2.17;;;;;;;11.01;90.51;100323.16;5044163;28;20236;-73
2024/04/05 03:52:32;;;;;;;10.53;2.43;;;;;;;11.04;90.57;100322.09;5043565;28;20458;-72
2024/04/05 03:54:58;;;;;;;9.97;1.97;;;;;;;11.05;90.71;100326.47;5046344;28;20209;-72
2024/04/05 03:57:25;;;;;;;8.40;3.53;;;;;;;11.06;90.64;100334.34;5042600;28;20205;-72
2024/04/05 03:59:51;;;;;;;12.73;2.27;;;;;;;11.11;90.54;100334.00;5043587;28;20227;-73
2024/04/05 04:02:18;;;;;;;10.37;2.43;;;;;;;11.12;90.51;100339.22;5042523;28;20202;-72
2024/04/05 04:04:44;;;;;;;6.57;1.90;;;;;;;11.17;90.27;100341.59;5040443;28;20716;-73
2024/04/05 04:07:10;;;;;;;9.77;2.10;;;;;;;11.18;90.60;100342.44;5039076;28;20232;-73
2024/04/05 04:09:36;;;;;;;8.27;2.30;;;;;;;11.20;90.33;100344.03;5044324;28;20291;-73
2024/04/05 04:12:03;;;;;;;10.23;2.53;;;;;;;11.23;90.72;100348.31;5043555;28;20763;-73
2024/04/05 04:14:29;;;;;;;7.57;2.10;;;;;;;11.26;90.56;100348.09;5043084;28;20215;-73
2024/04/05 04:16:57;;;;;;;8.80;1.97;;;;;;;11.31;90.08;100337.94;5038538;28;20635;-72
2024/04/05 04:19:22;;;;;;;7.23;2.53;;;;;;;11.30;90.09;100344.22;5042091;28;20320;-72
2024/04/05 04:21:49;;;;;;;7.93;2.23;;;;;;;11.33;90.06;100349.34;5040185;28;20199;-73
2024/04/05 04:24:16;;;;;;;11.53;2.67;;;;;;;11.33;90.09;100349.34;5045620;28;20215;-72
2024/04/05 04:26:42;;;;;;;11.57;2.47;;;;;;;11.34;89.83;100356.38;5039222;28;20725;-73
2024/04/05 04:29:08;;;;;;;11.57;2.17;;;;;;;11.36;90.16;100347.31;5043689;28;20312;-73
2024/04/05 04:31:35;;;;;;;8.30;2.07;;;;;;;11.40;89.82;100350.63;5041982;28;20231;-73
2024/04/05 04:34:03;;;;;;;11.13;1.90;;;;;;;11.46;89.27;100342.19;5044664;28;20841;-72
2024/04/05 04:36:30;;;;;;;9.23;2.33;;;;;;;11.48;89.50;100342.91;5041553;28;20494;-72
2024/04/05 04:38:55;;;;;;;7.93;2.20;;;;;;;11.48;89.25;100350.91;5041575;28;20311;-73
2024/04/05 04:41:22;;;;;;;6.77;1.90;;;;;;;11.54;89.23;100347.81;5037834;28;20202;-72
2024/04/05 04:43:47;;;;;;;7.00;3.10;;;;;;;11.55;88.85;100346.84;5041151;28;20237;-73
2024/04/05 04:46:14;;;;;;;9.97;2.20;;;;;;;11.56;89.12;100345.88;5042099;28;20589;-72
2024/04/05 04:48:40;;;;;;;8.50;2.73;;;;;;;11.59;88.77;100345.66;5044558;28;20221;-73
2024/04/05 04:51:10;;;;;;;8.13;1.90;;;;;;;11.59;88.91;100343.00;5041984;28;20206;-73
2024/04/05 04:53:36;;;;;;;8.83;1.83;;;;;;;11.58;89.13;100359.13;5037204;28;20680;-73
2024/04/05 04:56:02;;;;;;;10.87;2.00;;;;;;;11.60;89.01;100360.72;5044847;28;20215;-73
2024/04/05 04:58:29;;;;;;;10.73;2.40;;;;;;;11.61;89.21;100367.75;5043786;28;20203;-73
2024/04/05 05:00:57;;;;;;;11.47;2.30;;;;;;;11.60;89.07;100360.72;5045128;28;20212;-72
2024/04/05 05:03:23;;;;;;;10.03;1.80;;;;;;;11.65;89.17;100361.22;5044999;28;20764;-73
2024/04/05 05:05:49;;;;;;;7.00;1.87;;;;;;;11.63;89.47;100354.31;5045048;28;20260;-73
2024/04/05 05:08:16;;;;;;;6.23;2.13;;;;;;;11.63;89.77;100367.66;5037602;28;20223;-72
2024/04/05 05:10:43;;;;;;;5.70;2.43;;;;;;;11.60;89.71;100363.38;5043764;28;20206;-72
2024/04/05 05:13:09;;;;;;;8.03;2.50;;;;;;;11.66;89.90;100354.91;5044198;28;20252;-72
2024/04/05 05:15:36;;;;;;;8.67;2.87;;;;;;;11.65;90.26;100355.03;5042491;28;20199;-72
2024/04/05 05:18:02;;;;;;;10.27;1.90;;;;;;;11.66;90.13;100349.56;5045465;28;20207;-73
2024/04/05 05:20:29;;;;;;;8.93;1.90;;;;;;;11.69;90.56;100356.50;5041154;28;20301;-72
2024/04/05 05:22:54;;;;;;;8.97;2.73;;;;;;;11.68;91.06;100358.31;5043663;28;20315;-74
2024/04/05 05:25:22;;;;;;;5.90;1.70;;;;;;;11.68;91.89;100355.66;5041827;28;20680;-72
2024/04/05 05:27:48;;;;;;;7.90;2.33;;;;;;;11.69;91.82;100369.84;5042094;28;20248;-72
2024/04/05 05:30:15;;;;;;;5.17;1.30;;;;;;;11.71;92.46;100360.78;5044709;28;20725;-72
2024/04/05 05:32:41;;;;;;;8.97;1.87;;;;;;;11.71;92.73;100357.25;5043092;28;20288;-71
2024/04/05 05:35:08;;;;;;;4.93;1.60;;;;;;;11.73;93.58;100360.66;5041672;28;20295;-71
2024/04/05 05:37:34;;;;;;;6.80;1.77;;;;;;;11.72;93.85;100359.81;5041559;28;20755;-72
2024/04/05 05:40:01;;;;;;;7.57;1.73;;;;;;;11.74;93.84;100378.38;5045055;28;20343;-72
2024/04/05 05:42:28;;;;;;;7.10;1.70;;;;;;;11.73;94.54;100369.53;5042884;28;20201;-72
2024/04/05 05:44:55;;;;;;;5.37;1.87;;;;;;;11.68;94.69;100376.16;5040672;28;20209;-73
2024/04/05 05:47:21;;;;;;;6.27;1.60;;;;;;;11.71;95.28;100382.13;5037788;28;20227;-72
2024/04/05 05:49:50;;;;;;;8.00;1.43;;;;;;;11.74;95.14;100389.06;5048181;28;20244;-73
2024/04/05 05:52:16;;;;;;;5.97;1.60;;;;;;;11.76;95.82;100389.81;5046021;28;20287;-72
2024/04/05 05:54:42;;;;;;;4.43;1.47;;;;;;;11.75;95.77;100380.09;5048295;28;20215;-72
2024/04/05 05:57:09;;;;;;;6.27;1.47;;;;;;;11.78;96.46;100375.41;5047606;28;20653;-72
2024/04/05 05:59:36;;;;;;;6.63;1.67;;;;;;;11.78;96.36;100374.56;5049538;28;20248;-72
2024/04/05 06:02:03;;;;;;;5.10;1.30;;;;;;;11.80;96.83;100378.84;5045798;28;20299;-72
2024/04/05 06:04:29;;;;;;;8.73;2.30;;;;;;;11.80;97.10;100369.97;5047426;28;20207;-73
2024/04/05 06:06:55;;;;;;;5.20;1.63;;;;;;;11.85;97.02;100375.81;5047055;28;20225;-72
2024/04/05 06:09:23;;;;;;;4.50;1.83;;;;;;;11.87;97.23;100375.69;5045653;28;20320;-72
2024/04/05 06:11:49;;;;;;;7.07;1.77;;;;;;;11.90;97.58;100380.81;5048024;28;20213;-72
2024/04/05 06:14:16;;;;;;;5.20;1.50;;;;;;;11.96;97.74;100369.69;5046753;28;20212;-72
2024/04/05 06:16:44;;;;;;;5.80;1.60;;;;;;;11.98;97.53;100378.44;5043930;28;20254;-72
2024/04/05 06:19:10;;;;;;;6.70;1.57;;;;;;;11.96;98.04;100383.03;5059656;22;20241;-73
2024/04/05 06:21:37;;;;;;;6.43;1.67;;;;;;;11.97;98.36;100382.94;5046951;28;20318;-73
2024/04/05 06:24:03;;;;;;;6.43;1.60;;;;;;;12.02;98.38;100388.75;5048153;28;20227;-72
2024/04/05 06:26:29;;;;;;;5.20;1.63;;;;;;;12.05;98.45;100387.69;5043907;28;20304;-73
2024/04/05 06:28:56;;;;;;;8.30;2.60;;;;;;;12.09;98.25;100378.50;5047262;28;20235;-73
2024/04/05 06:31:22;;;;;;;7.10;2.10;;;;;;;12.11;98.73;100385.44;5048418;28;20743;-71
2024/04/05 06:33:50;;;;;;;5.00;2.30;;;;;;;12.14;98.61;100400.38;5046466;28;20302;-71
2024/04/05 06:36:16;;;;;;;4.03;1.60;;;;;;;12.16;99.26;100403.78;5049115;28;20288;-72
2024/04/05 06:38:42;;;;;;;7.37;2.07;;;;;;;12.24;98.87;100400.53;5043777;28;20201;-73
2024/04/05 06:41:08;;;;;;;5.60;2.03;;;;;;;12.28;99.01;100396.69;5041891;28;20292;-73
2024/04/05 06:43:35;;;;;;;8.57;1.90;;;;;;;12.32;99.35;100387.47;5038621;28;20306;-72
2024/04/05 06:46:03;;;;;;;10.43;2.43;;;;;;;12.37;99.32;100385.28;5042023;28;20241;-72
2024/04/05 06:48:31;;;;;;;8.97;4.10;;;;;;;12.46;99.25;100385.47;5044643;28;20230;-72
2024/04/05 06:50:58;;;;;;;6.20;2.53;;;;;;;12.54;98.41;100381.38;5038583;28;20284;-71
2024/04/05 06:53:27;;;;;;;8.13;2.93;;;;;;;12.57;98.35;100386.47;5044213;28;20209;-70
2024/04/05 06:55:53;;;;;;;8.27;2.30;;;;;;;12.61;98.99;100395.97;5029216;28;20253;-71
2024/04/05 06:58:20;;;;;;;4.77;2.00;;;;;;;12.63;99.13;100386.00;5026785;28;20393;-71
2024/04/05 07:00:46;;;;;;;4.67;1.73;;;;;;;12.68;99.08;100389.19;5039512;28;20225;-71
2024/04/05 07:03:13;;;;;;;6.00;1.40;;;;;;;12.74;98.37;100396.72;5043307;28;20304;-71
2024/04/05 07:05:39;;;;;;;7.77;1.80;;;;;;;12.79;98.04;100399.91;5043652;28;20294;-72
2024/04/05 07:08:07;;;;;;;6.63;1.60;;;;;;;12.82;97.43;100403.19;5041538;28;20810;-72
2024/04/05 07:10:34;;;;;;;7.50;2.33;;;;;;;12.85;97.58;100400.31;5037188;28;20229;-72
2024/04/05 07:13:01;;;;;;;6.60;1.40;;;;;;;12.90;97.75;100405.28;5040756;28;20562;-71
2024/04/05 07:15:27;;;;;;;4.37;1.50;;;;;;;12.97;97.54;100411.88;5040387;28;20321;-71
2024/04/05 07:17:54;;;;;;;4.30;1.40;;;;;;;13.04;96.99;100407.75;5040577;28;20875;-71
2024/04/05 07:20:21;;;;;;;5.83;1.57;;;;;;;13.09;97.03;100408.22;5040773;28;20440;-71
2024/04/05 07:22:47;;;;;;;6.37;1.50;;;;;;;13.13;96.67;100411.53;5044499;28;20211;-71
2024/04/05 07:25:15;;;;;;;4.63;1.73;;;;;;;13.17;95.76;100413.88;5039587;28;20201;-71
2024/04/05 07:27:41;;;;;;;4.37;1.60;;;;;;;13.18;95.76;100412.91;5043139;28;20304;-72
2024/04/05 07:30:08;;;;;;;9.70;2.83;;;;;;;13.19;95.79;100416.44;5039546;28;20771;-71
2024/04/05 07:32:34;;;;;;;6.90;1.67;;;;;;;13.21;96.64;100417.16;5043656;28;20194;-73
2024/04/05 07:35:01;;;;;;;4.03;2.13;;;;;;;13.20;97.83;100419.00;5042870;28;20647;-72
2024/04/05 07:37:27;;;;;;;7.77;1.53;;;;;;;13.22;98.35;100418.03;5043637;28;20388;-72
2024/04/05 07:39:56;;;;;;;6.23;2.30;;;;;;;13.23;98.69;100419.72;5045061;28;20395;-72
2024/04/05 07:42:23;;;;;;;4.50;1.50;;;;;;;13.23;98.93;100428.59;5043234;28;20296;-72
2024/04/05 07:44:53;;;;;;;5.80;1.87;;;;;;;13.18;99.30;100434.31;5042523;28;20297;-72
2024/04/05 07:47:19;;;;;;;8.53;1.60;;;;;;;13.22;99.13;100426.06;5046966;28;20721;-71
2024/04/05 07:49:47;;;;;;;7.33;2.07;;;;;;;13.22;99.11;100431.41;5045699;28;20248;-72
2024/04/05 07:52:12;;;;;;;6.90;2.37;;;;;;;13.23;99.15;100435.78;5045606;28;20208;-73
2024/04/05 07:54:43;;;;;;;7.67;2.30;;;;;;;13.24;98.85;100437.47;5045083;28;20201;-71
2024/04/05 07:57:08;;;;;;;3.67;1.43;;;;;;;13.18;99.40;100439.66;5045672;28;20237;-71
2024/04/05 07:59:37;;;;;;;5.03;1.30;;;;;;;13.18;100.00;100442.31;5047288;28;20264;-72
2024/04/05 08:02:03;;;;;;;5.57;2.03;;;;;;;13.19;100.00;100430.66;5043912;28;20241;-71
2024/04/05 08:04:30;;;;;;;6.80;1.70;;;;;;;13.17;100.00;100419.22;5046044;28;20584;-72
2024/04/05 08:06:58;;;;;;;3.80;1.63;;;;;;;13.18;100.00;100426.28;5046317;28;20205;-72
2024/04/05 08:09:24;;;;;;;7.73;2.00;;;;;;;13.18;100.00;100430.78;5041152;28;20240;-72
2024/04/05 08:11:50;;;;;;;6.43;2.07;;;;;;;13.21;100.00;100427.88;5045686;28;20202;-72
2024/04/05 08:14:16;;;;;;;6.57;2.20;;;;;;;13.28;100.00;100428.22;5045649;28;20201;-72
2024/04/05 08:16:43;;;;;;;4.70;1.97;;;;;;;13.33;100.00;100423.38;5044633;28;20300;-71
2024/04/05 08:19:10;;;;;;;9.20;2.87;;;;;;;13.35;100.00;100433.00;5049607;28;20235;-72
2024/04/05 08:21:36;;;;;;;4.93;1.60;;;;;;;13.38;100.00;100418.53;5045121;28;20658;-71
2024/04/05 08:24:03;;;;;;;8.13;1.70;;;;;;;13.39;100.00;100417.56;5049010;28;20303;-70
2024/04/05 08:26:28;;;;;;;9.90;2.30;;;;;;;13.42;100.00;100410.16;5044316;28;20209;-73
2024/04/05 08:28:55;;;;;;;8.27;2.17;;;;;;;13.44;100.00;100396.63;5046206;28;20790;-71
2024/04/05 08:31:21;;;;;;;6.37;2.07;;;;;;;13.45;100.00;100396.50;5046654;28;20742;-72
2024/04/05 08:33:49;;;;;;;5.27;1.60;;;;;;;13.47;100.00;100377.66;5049490;28;20285;-71
2024/04/05 08:36:14;;;;;;;6.00;1.77;;;;;;;13.49;100.00;100381.06;5046330;28;20209;-71
2024/04/05 08:38:41;;;;;;;4.83;2.00;;;;;;;13.50;100.00;100372.91;5037528;28;20750;-73
2024/04/05 08:41:08;;;;;;;4.60;2.03;;;;;;;13.52;100.00;100368.31;5040887;28;20619;-73
2024/04/05 08:43:40;;;;;;;6.00;1.63;;;;;;;13.56;100.00;100366.25;5039788;28;20666;-73
2024/04/05 08:46:06;;;;;;;4.30;1.37;;;;;;;13.58;100.00;100358.09;5041587;28;20209;-73
2024/04/05 08:48:35;;;;;;;6.37;2.20;;;;;;;13.71;100.00;100350.75;5042776;28;20244;-73
2024/04/05 08:51:02;;;;;;;5.53;2.00;;;;;;;13.81;100.00;100351.69;5045470;28;20602;-73
2024/04/05 08:53:29;;;;;;;4.83;1.80;;;;;;;13.90;100.00;100350.97;5045553;28;20702;-73
2024/04/05 08:55:59;;;;;;;8.27;2.23;;;;;;;14.06;100.00;100353.22;5044558;28;20504;-72
2024/04/05 08:58:27;;;;;;;5.80;1.80;;;;;;;14.24;100.00;100354.38;5041542;28;20217;-73
2024/04/05 09:00:53;;;;;;;6.20;1.77;;;;;;;14.44;100.00;100347.41;5042181;28;20279;-72
2024/04/05 09:03:20;;;;;;;4.13;1.90;;;;;;;14.61;100.00;100336.09;5033890;28;20295;-72
2024/04/05 09:05:49;;;;;;;3.80;1.60;;;;;;;14.80;100.00;100338.06;5043186;28;20199;-70
2024/04/05 09:08:17;;;;;;;4.17;1.67;;;;;;;15.02;100.00;100337.06;5043829;28;20312;-73
2024/04/05 09:10:48;;;;;;;5.43;1.83;;;;;;;15.22;97.78;100323.63;5043464;28;20321;-74
2024/04/05 09:13:17;;;;;;;7.03;1.80;;;;;;;15.35;97.97;100320.69;5041517;28;20209;-73
2024/04/05 09:15:43;;;;;;;4.90;1.60;;;;;;;15.51;97.41;100315.66;5034583;28;20578;-74
2024/04/05 09:18:10;;;;;;;5.73;1.30;;;;;;;15.70;98.10;100306.00;5038420;28;20669;-74
2024/04/05 09:20:35;;;;;;;4.17;1.40;;;;;;;15.88;95.74;100304.31;5043019;28;20254;-74
2024/04/05 09:23:04;;;;;;;6.30;2.43;;;;;;;16.07;95.31;100298.97;5046798;28;20692;-74
2024/04/05 09:25:32;;;;;;;5.27;2.20;;;;;;;16.20;92.58;100298.69;5042787;28;20201;-72
2024/04/05 09:28:10;;;;;;;5.37;1.97;;;;;;;16.27;92.17;100291.75;5046127;28;20320;-75
2024/04/05 09:30:36;;;;;;;3.77;1.20;;;;;;;16.33;91.08;100293.88;5047909;28;20274;-74
2024/04/05 09:33:03;;;;;;;4.23;1.10;;;;;;;16.43;91.01;100292.03;5043549;28;20223;-74
2024/04/05 09:35:30;;;;;;;6.00;1.23;;;;;;;16.52;88.96;100287.63;5044000;28;20684;-74
2024/04/05 09:37:58;;;;;;;3.40;1.40;;;;;;;16.61;88.50;100294.84;5047309;28;20206;-74
2024/04/05 09:40:23;;;;;;;4.47;1.37;;;;;;;16.71;86.42;100289.47;5046450;28;20659;-74
2024/04/05 09:42:53;;;;;;;5.83;1.40;;;;;;;16.79;85.54;100287.75;5049635;28;20210;-74
2024/04/05 09:45:20;;;;;;;3.23;1.13;;;;;;;16.87;84.13;100289.69;5044401;28;20289;-74
2024/04/05 09:47:48;;;;;;;3.87;1.03;;;;;;;16.90;84.23;100292.94;5043270;28;20221;-74
2024/04/05 09:50:14;;;;;;;4.17;1.00;;;;;;;16.96;82.16;100292.38;5046597;28;20316;-76
2024/04/05 09:52:44;;;;;;;2.97;1.30;;;;;;;17.00;80.80;100283.03;5046497;28;20294;-75
2024/04/05 09:55:13;;;;;;;4.53;1.40;;;;;;;17.00;79.80;100272.25;5045109;28;20217;-76
2024/04/05 09:57:39;;;;;;;3.13;1.00;;;;;;;17.04;80.60;100271.94;5044572;28;20697;-76
2024/04/05 10:00:14;;;;;;;2.33;0.90;;;;;;;17.08;78.92;100259.88;5046150;28;20230;-74
2024/04/05 10:02:44;;;;;;;4.63;1.10;;;;;;;17.09;79.96;100259.75;5034582;28;20676;-72
2024/04/05 10:05:12;;;;;;;2.73;0.70;;;;;;;17.13;80.82;100252.22;5037190;28;20306;-70
2024/04/05 10:07:39;;;;;;;3.97;1.00;;;;;;;17.17;80.37;100259.88;5037284;28;20301;-74
2024/04/05 10:10:09;;;;;;;3.93;1.50;;;;;;;17.16;78.80;100265.38;5033283;28;20242;-74
2024/04/05 10:12:35;;;;;;;3.90;1.57;;;;;;;17.15;80.20;100263.69;5037271;28;20345;-74
2024/04/05 10:15:01;;;;;;;3.83;1.00;;;;;;;17.17;78.68;100265.25;5037664;28;20303;-72
2024/04/05 10:17:32;;;;;;;4.27;1.80;;;;;;;17.18;79.78;100268.78;5040658;28;20210;-71
2024/04/05 10:20:06;;;;;;;5.47;1.57;;;;;;;17.18;79.60;100263.41;5041358;28;20236;-73
2024/04/05 10:22:33;;;;;;;4.80;1.50;;;;;;;17.21;79.89;100253.16;5037703;28;20203;-72
2024/04/05 10:24:59;;;;;;;4.07;1.30;;;;;;;17.25;79.46;100249.19;5036070;28;20692;-71
2024/04/05 10:27:27;;;;;;;3.37;0.90;;;;;;;17.25;79.12;100248.34;5041192;28;20213;-69
2024/04/05 10:29:58;;;;;;;3.33;1.23;;;;;;;17.27;78.71;100247.19;5039553;28;20241;-70
2024/04/05 10:32:25;;;;;;;4.13;0.93;;;;;;;17.27;78.73;100236.44;5037828;28;20675;-71
2024/04/05 10:34:52;;;;;;;4.57;1.07;;;;;;;17.26;78.33;100229.34;5042183;28;20297;-72
2024/04/05 10:37:18;;;;;;;5.13;1.37;;;;;;;17.26;78.58;100217.72;5032750;28;20303;-70
2024/04/05 10:39:44;;;;;;;3.10;1.00;;;;;;;17.20;78.26;100221.88;5031861;28;20220;-71
2024/04/05 10:42:11;;;;;;;3.63;0.90;;;;;;;17.19;79.22;100214.81;5034047;28;20214;-70
2024/04/05 10:44:37;;;;;;;3.53;1.10;;;;;;;17.19;78.47;100217.50;5039725;28;20207;-72
2024/04/05 10:47:08;;;;;;;5.83;2.00;;;;;;;17.22;79.10;100209.09;5041031;28;20624;-72
2024/04/05 10:49:33;;;;;;;5.70;1.40;;;;;;;17.25;78.23;100205.28;5043182;28;20232;-71
2024/04/05 10:52:02;;;;;;;3.57;1.10;;;;;;;17.25;79.42;100211.50;5041064;28;20294;-71
2024/04/05 10:54:28;;;;;;;3.73;1.10;;;;;;;17.26;77.90;100204.28;5042464;28;20220;-69
2024/04/05 10:56:55;;;;;;;1.97;0.90;;;;;;;17.27;78.12;100198.75;5040135;28;20203;-73
2024/04/05 10:59:21;;;;;;;4.57;1.90;;;;;;;17.33;78.90;100197.31;5043425;28;20233;-71
2024/04/05 11:01:48;;;;;;;4.43;1.20;;;;;;;17.36;77.66;100186.25;5042081;28;20207;-71
2024/04/05 11:04:14;;;;;;;3.63;0.83;;;;;;;17.40;77.94;100178.69;5040220;28;20212;-72
2024/04/05 11:06:41;;;;;;;5.17;1.50;;;;;;;17.43;77.52;100194.53;5037699;28;21746;-72
2024/04/05 11:09:09;;;;;;;3.50;1.00;;;;;;;17.43;77.93;100176.53;5039251;28;20232;-70
2024/04/05 11:11:36;;;;;;;2.53;1.10;;;;;;;17.46;79.19;100175.38;5040743;28;20279;-72
2024/04/05 11:14:02;;;;;;;3.80;1.70;;;;;;;17.50;78.16;100171.41;5041877;28;20204;-72
2024/04/05 11:16:30;;;;;;;3.57;1.50;;;;;;;17.50;77.96;100160.63;5031313;28;20749;-70
2024/04/05 11:18:55;;;;;;;3.97;1.33;;;;;;;17.52;78.69;100161.31;5033143;28;20238;-71